Zapata, Texas
Current Conditions -  °F | °C
As of 5:15 AM on Saturday 20 Dec 2014 (Local Time) from KAPY Reporting Station
Overcast Overcast  
Wind Chill: 13°   Ceiling: 1600
Heat Index: 13°   Visibility: 10mi
Dew Point: 13°   Wind: 5mph
Humidity: 100%   Direction: 10°N
Pressure: 30.13"   Gusts: NA
Location:  26.91°N, 99.27°W
Report Text: KAPY 201115Z AUTO 01004KT 10SM OVC016 12/12 A3013 RMK AO2 T01250125
Loading
Personal Weather Stations






























Interactive Weather Map New forecast layout! Learn more

10-Day Weather Forecast

Advertisements
Track Severe Weather on mobile